Poulsbo, WA

5:14 PM PST on December 20, 2014 (GMT -0800)
Central Market Poulsbo | Change Station
CLOSE
Current Station
Personal Weather Station
Location: Poulsbo, WA
Elevation: 68 ft
Nearby Weather Stations

Elev 68 ft 47.75 °N, 122.64 °W | Updated 3 seconds ago

Overcast
Overcast
51.3 °F
Feels Like 51.3 °F
N
12.0
Wind Variable Wind from South
Gusts 12.0 mph

Today
High -- | Low -- °F
--% Chance of Precip.
Yesterday
High -- | Low -- °F
Precip. -- in
7:56 AM 4:20 PM
Waning Crescent, 1% visible
Pressure 29.46 in
Visibility 6.0 miles
Clouds Overcast 500 ft
Dew Point 48 °F
Humidity 90%
Rainfall 0.49 in
Snow Depth Not available.
UV 0 out of 12
Pollen .40 out of 12
Air Quality Not available.
Flu Activity Not available.
METAR KPWT 210055Z AUTO 19018G23KT 6SM OVC005 10/10 A2946 RMK AO1 P0009

More Conditions Fewer Conditions

Pressure 29.46 in
Visibility 6.0 miles
Clouds Overcast 500 ft
Dew Point 48 °F
Humidity 90%
Rainfall 0.49 in
Snow Depth Not available.
UV 0 out of 12
Pollen .40 out of 12
Air Quality Not available.
Flu Activity Not available.
METAR KPWT 210055Z AUTO 19018G23KT 6SM OVC005 10/10 A2946 RMK AO1 P0009

More Conditions Fewer Conditions

10-Day Weather Forecast

Almanac

Astronomy

Dec. 20, 2014 Rise Set
Actual Time
Civil Twilight
Nautical Twilight
Astronomical Twilight
Moon
Length of Visible Light
Length of Day
Tomorrow will be .
, % of the Moon is Illuminated

Today's Extremes

State Highs State Lows

Community

WunderPhotos

Upload Photos

1,779,332 photos uploaded!

WunderBlogs® & News

Nearby

Air Quality

  Air Quality AQ Index Pollutant
Not available.

Snow Depth

Station Depth Elevation

Earthquake Activity

City Distance Mag. Time & Date
Minimum magnitude displayed is 2.5.

Coastal Water Temperatures

Place Temperature

Nearby Weather Stations